createdAt,value
2022-11-20T00:02:42.890Z,4.64
2022-11-20T00:07:44.609Z,4.65
2022-11-20T00:12:46.032Z,4.37
2022-11-20T00:17:47.412Z,4.32
2022-11-20T00:22:48.803Z,4.46
2022-11-20T00:27:50.236Z,4.68
2022-11-20T00:32:51.686Z,4.44
2022-11-20T00:37:53.260Z,4.37
2022-11-20T00:42:54.642Z,4.43
2022-11-20T00:47:56.055Z,4.63
2022-11-20T00:52:57.533Z,4.67
2022-11-20T00:58:02.421Z,4.77
2022-11-20T01:03:05.755Z,4.84
2022-11-20T01:08:07.248Z,4.81
2022-11-20T01:13:08.675Z,4.73
2022-11-20T01:18:10.164Z,4.77
2022-11-20T01:23:11.557Z,4.83
2022-11-20T01:28:13.053Z,4.74
2022-11-20T01:33:14.413Z,4.65
2022-11-20T01:38:17.020Z,4.62
2022-11-20T01:43:20.524Z,4.73
2022-11-20T01:48:24.684Z,4.91
2022-11-20T01:53:31.662Z,5.08
2022-11-20T01:58:36.494Z,5.13
2022-11-20T02:03:38.078Z,5.08
2022-11-20T02:08:39.707Z,5.17
2022-11-20T02:13:42.097Z,5.10
2022-11-20T02:18:45.256Z,5.04
2022-11-20T02:23:52.750Z,5.19
2022-11-20T02:28:55.249Z,5.19
2022-11-20T02:33:59.685Z,5.32
2022-11-20T02:39:01.218Z,5.27
2022-11-20T02:44:03.493Z,5.22
2022-11-20T02:49:06.148Z,5.22
2022-11-20T02:54:07.552Z,5.23
2022-11-20T02:59:09.193Z,5.23
2022-11-20T03:04:10.754Z,5.05
2022-11-20T03:09:12.578Z,4.54
2022-11-20T03:14:14.101Z,4.82
2022-11-20T03:19:15.836Z,4.79
2022-11-20T03:24:17.391Z,4.71
2022-11-20T03:29:19.261Z,4.66
2022-11-20T03:34:20.985Z,4.71
2022-11-20T03:39:22.565Z,4.64
2022-11-20T03:44:24.326Z,4.86
2022-11-20T03:49:26.009Z,4.78
2022-11-20T03:54:27.375Z,4.82
2022-11-20T03:59:28.805Z,5.04
2022-11-20T04:04:30.345Z,5.12
2022-11-20T04:09:31.780Z,4.85
2022-11-20T04:14:33.240Z,4.63
2022-11-20T04:19:34.689Z,4.70
2022-11-20T04:24:36.215Z,4.83
2022-11-20T04:29:37.660Z,4.65
2022-11-20T04:34:39.102Z,4.87
2022-11-20T04:39:40.536Z,4.86
2022-11-20T04:44:41.990Z,4.91
2022-11-20T04:49:43.492Z,4.84
2022-11-20T04:54:44.975Z,4.97
2022-11-20T04:59:46.537Z,4.81
2022-11-20T05:04:48.587Z,4.60
2022-11-20T05:09:49.988Z,4.83
2022-11-20T05:14:51.385Z,4.88
2022-11-20T05:19:53.299Z,4.82
2022-11-20T05:24:54.827Z,4.80
2022-11-20T05:29:56.296Z,5.08
2022-11-20T05:34:57.739Z,5.20
2022-11-20T05:39:59.458Z,5.16
2022-11-20T05:45:02.129Z,4.96
2022-11-20T05:50:03.838Z,5.01
2022-11-20T05:55:05.824Z,4.94
2022-11-20T06:00:08.037Z,4.95
2022-11-20T06:05:09.698Z,5.05
2022-11-20T06:10:11.179Z,5.19
2022-11-20T06:15:12.621Z,5.15
2022-11-20T06:20:14.273Z,5.24
2022-11-20T06:25:15.747Z,5.21
2022-11-20T06:30:17.134Z,5.28
2022-11-20T06:35:18.574Z,5.20
2022-11-20T06:40:20.390Z,5.13
2022-11-20T06:45:22.351Z,5.14
2022-11-20T06:50:23.807Z,5.13
2022-11-20T06:55:25.276Z,4.90
2022-11-20T07:00:26.708Z,5.07
2022-11-20T07:05:28.204Z,5.02
2022-11-20T07:10:29.798Z,5.07
2022-11-20T07:15:31.501Z,4.89
2022-11-20T07:20:32.965Z,5.02
2022-11-20T07:25:34.577Z,5.05
2022-11-20T07:30:36.065Z,5.15
2022-11-20T07:35:37.481Z,5.20
2022-11-20T07:40:38.960Z,5.20
2022-11-20T07:45:40.450Z,5.29
2022-11-20T07:50:41.898Z,5.34
2022-11-20T07:55:43.379Z,5.24
2022-11-20T08:00:44.867Z,5.20
2022-11-20T08:05:46.303Z,5.29
2022-11-20T08:10:47.727Z,5.34
2022-11-20T08:15:50.893Z,5.39
2022-11-20T08:20:52.360Z,5.38
2022-11-20T08:25:53.834Z,5.33
2022-11-20T08:31:00.943Z,5.63
2022-11-20T08:36:04.389Z,5.67
2022-11-20T08:41:06.749Z,5.50
2022-11-20T08:46:08.284Z,5.76
2022-11-20T08:51:09.985Z,5.81
2022-11-20T08:56:11.466Z,5.79
2022-11-20T09:01:13.000Z,5.73
2022-11-20T09:06:15.123Z,5.92
2022-11-20T09:11:16.555Z,6.01
2022-11-20T09:16:18.201Z,5.98
2022-11-20T09:21:19.687Z,6.24
2022-11-20T09:26:21.246Z,6.35
2022-11-20T09:31:24.593Z,6.22
2022-11-20T09:36:26.098Z,6.02
2022-11-20T09:41:53.493Z,6.11
2022-11-20T09:47:04.879Z,6.10
2022-11-20T09:52:37.840Z,6.19
2022-11-20T09:57:43.447Z,6.22
2022-11-20T10:02:56.705Z,6.17
2022-11-20T10:08:16.577Z,6.41
2022-11-20T10:13:29.948Z,6.45
2022-11-20T10:18:49.460Z,6.43
2022-11-20T10:24:03.014Z,6.51
2022-11-20T10:29:16.598Z,6.46
2022-11-20T10:34:27.264Z,6.37
2022-11-20T10:39:51.083Z,6.59
2022-11-20T10:45:02.774Z,6.65
2022-11-20T10:50:12.211Z,6.89
2022-11-20T10:55:19.572Z,6.87
2022-11-20T11:00:21.080Z,6.83
2022-11-20T11:05:49.768Z,6.98
2022-11-20T11:10:57.449Z,7.02
2022-11-20T11:15:59.285Z,7.15
2022-11-20T11:21:03.344Z,7.28
2022-11-20T11:26:07.663Z,7.27
2022-11-20T11:31:09.146Z,7.33
2022-11-20T11:36:24.015Z,7.35
2022-11-20T11:41:30.558Z,7.39
2022-11-20T11:46:34.584Z,7.53
2022-11-20T11:51:42.886Z,7.55
2022-11-20T11:56:45.566Z,7.56
2022-11-20T12:01:55.714Z,7.63
2022-11-20T12:07:31.405Z,7.78
2022-11-20T12:12:39.957Z,7.73
2022-11-20T12:17:41.416Z,7.77
2022-11-20T12:22:55.669Z,7.78
2022-11-20T12:28:17.200Z,7.69
2022-11-20T12:33:21.343Z,7.84
2022-11-20T12:38:47.010Z,7.94
2022-11-20T12:44:09.037Z,7.92
2022-11-20T12:49:48.196Z,7.81
2022-11-20T12:55:11.860Z,7.65
2022-11-20T13:00:22.392Z,7.64
2022-11-20T13:05:56.419Z,7.81
2022-11-20T13:11:04.517Z,7.93
2022-11-20T13:16:14.643Z,7.93
2022-11-20T13:21:36.252Z,8.08
2022-11-20T13:26:37.711Z,8.01
2022-11-20T13:31:44.907Z,8.13
2022-11-20T13:36:51.595Z,8.12
2022-11-20T13:42:01.719Z,8.20
2022-11-20T13:47:03.201Z,8.18
2022-11-20T13:52:29.591Z,8.08
2022-11-20T13:57:40.380Z,8.13
2022-11-20T14:02:43.503Z,8.24
2022-11-20T14:07:46.371Z,8.35
2022-11-20T14:12:47.919Z,8.42
2022-11-20T14:17:49.332Z,8.34
2022-11-20T14:22:51.048Z,8.34
2022-11-20T14:28:04.446Z,8.38
2022-11-20T14:33:05.952Z,8.42
2022-11-20T14:38:12.802Z,8.41
2022-11-20T14:43:25.093Z,8.35
2022-11-20T14:48:38.961Z,8.27
2022-11-20T14:53:40.437Z,8.28
2022-11-20T14:58:41.902Z,8.26
2022-11-20T15:03:43.432Z,8.25
2022-11-20T15:08:54.749Z,8.24
2022-11-20T15:13:56.257Z,8.08
2022-11-20T15:18:57.958Z,8.08
2022-11-20T15:23:59.365Z,7.94
2022-11-20T15:29:00.776Z,7.96
2022-11-20T15:34:02.279Z,7.98
2022-11-20T15:39:03.699Z,7.96
2022-11-20T15:44:05.931Z,7.91
2022-11-20T15:49:13.248Z,7.87
2022-11-20T15:54:17.012Z,7.92
2022-11-20T15:59:19.005Z,7.88
2022-11-20T16:04:20.754Z,7.91
2022-11-20T16:09:22.397Z,7.95
2022-11-20T16:14:24.031Z,7.85
2022-11-20T16:19:25.651Z,7.82
2022-11-20T16:24:27.187Z,7.70
2022-11-20T16:29:28.658Z,7.77
2022-11-20T16:34:30.211Z,7.64
2022-11-20T16:39:31.697Z,7.84
2022-11-20T16:44:33.123Z,7.77
2022-11-20T16:49:34.510Z,7.83
2022-11-20T16:54:35.964Z,7.82
2022-11-20T16:59:37.456Z,7.76
2022-11-20T17:04:39.192Z,7.77
2022-11-20T17:09:41.044Z,7.94
2022-11-20T17:14:42.434Z,7.87
2022-11-20T17:19:43.899Z,7.82
2022-11-20T17:24:45.311Z,7.88
2022-11-20T17:29:46.700Z,7.77
2022-11-20T17:34:48.119Z,7.78
2022-11-20T17:39:49.550Z,7.80
2022-11-20T17:44:50.943Z,7.79
2022-11-20T17:49:52.456Z,7.74
2022-11-20T17:54:53.911Z,7.71
2022-11-20T17:59:55.358Z,7.83
2022-11-20T18:04:56.810Z,7.83
2022-11-20T18:09:58.223Z,7.59
2022-11-20T18:14:59.688Z,7.79
2022-11-20T18:20:27.282Z,7.83
2022-11-20T18:25:22.659Z,7.83
2022-11-20T18:30:24.051Z,7.68
2022-11-20T18:35:27.006Z,7.62
2022-11-20T18:40:28.474Z,7.65
2022-11-20T18:45:29.906Z,7.69
2022-11-20T18:50:31.366Z,7.60
2022-11-20T18:55:32.730Z,7.49
2022-11-20T19:00:34.189Z,7.50
2022-11-20T19:05:36.653Z,7.56
2022-11-20T19:10:38.177Z,7.54
2022-11-20T19:15:39.678Z,7.45
2022-11-20T19:20:41.162Z,7.45
2022-11-20T19:25:42.556Z,7.47
2022-11-20T19:30:43.994Z,7.40
2022-11-20T19:35:45.409Z,7.38
2022-11-20T19:40:46.845Z,7.36
2022-11-20T19:45:48.238Z,7.24
2022-11-20T19:50:50.109Z,7.35
2022-11-20T19:55:58.834Z,7.20
2022-11-20T20:01:15.684Z,7.18
2022-11-20T20:06:20.062Z,7.18
2022-11-20T20:11:23.006Z,7.21
2022-11-20T20:16:26.076Z,7.22
2022-11-20T20:21:28.774Z,7.16
2022-11-20T20:26:31.681Z,7.16
2022-11-20T20:31:34.353Z,7.12
2022-11-20T20:36:35.820Z,6.97
2022-11-20T20:41:37.257Z,6.98
2022-11-20T20:46:41.540Z,7.08
2022-11-20T20:51:43.009Z,7.10
2022-11-20T20:56:44.468Z,7.16
2022-11-20T21:01:45.966Z,7.18
2022-11-20T21:06:47.408Z,7.33
2022-11-20T21:11:48.825Z,7.44
2022-11-20T21:16:50.306Z,7.50
2022-11-20T21:21:51.834Z,7.52
2022-11-20T21:26:53.519Z,7.68
2022-11-20T21:31:55.739Z,7.66
2022-11-20T21:36:57.192Z,7.47
2022-11-20T21:41:58.626Z,7.46
2022-11-20T21:47:00.130Z,7.46
2022-11-20T21:52:01.683Z,7.27
2022-11-20T21:57:03.179Z,7.42
2022-11-20T22:02:04.680Z,7.33
2022-11-20T22:07:06.200Z,7.25
2022-11-20T22:12:07.713Z,7.22
2022-11-20T22:17:13.547Z,7.09
2022-11-20T22:22:14.890Z,7.07
2022-11-20T22:27:16.296Z,7.14
2022-11-20T22:32:17.705Z,7.24
2022-11-20T22:37:19.124Z,7.31
2022-11-20T22:42:20.592Z,7.31
2022-11-20T22:47:21.998Z,7.23
2022-11-20T22:52:23.532Z,7.22
2022-11-20T22:57:24.995Z,7.16
2022-11-20T23:02:26.395Z,6.96
2022-11-20T23:07:27.957Z,6.82
2022-11-20T23:12:29.518Z,6.82
2022-11-20T23:17:30.948Z,6.81
2022-11-20T23:22:32.383Z,6.81
2022-11-20T23:27:33.842Z,6.74
2022-11-20T23:32:35.247Z,6.68
2022-11-20T23:37:36.733Z,6.63
2022-11-20T23:42:38.155Z,6.55
2022-11-20T23:47:39.538Z,6.53
2022-11-20T23:52:40.931Z,6.43
2022-11-20T23:57:42.386Z,6.51
